sensor_id;sensor_type;location;lat;lon;timestamp;P1;durP1;ratioP1;P2;durP2;ratioP2
47713;SDS011;33475;46.614;13.888;2023-08-24T00:01:26;7.35;;;6.65;;
47713;SDS011;33475;46.614;13.888;2023-08-24T00:03:52;9.48;;;6.28;;
47713;SDS011;33475;46.614;13.888;2023-08-24T00:06:18;7.00;;;6.18;;
47713;SDS011;33475;46.614;13.888;2023-08-24T00:08:44;10.45;;;7.07;;
47713;SDS011;33475;46.614;13.888;2023-08-24T00:11:10;7.22;;;6.53;;
47713;SDS011;33475;46.614;13.888;2023-08-24T00:13:43;6.50;;;6.00;;
47713;SDS011;33475;46.614;13.888;2023-08-24T00:16:19;7.53;;;5.38;;
47713;SDS011;33475;46.614;13.888;2023-08-24T00:18:45;6.07;;;5.63;;
47713;SDS011;33475;46.614;13.888;2023-08-24T00:21:15;6.00;;;5.50;;
47713;SDS011;33475;46.614;13.888;2023-08-24T00:23:48;5.93;;;5.43;;
47713;SDS011;33475;46.614;13.888;2023-08-24T00:26:14;9.05;;;5.47;;
47713;SDS011;33475;46.614;13.888;2023-08-24T00:28:43;7.90;;;6.55;;
47713;SDS011;33475;46.614;13.888;2023-08-24T00:31:10;7.00;;;6.28;;
47713;SDS011;33475;46.614;13.888;2023-08-24T00:33:37;8.50;;;6.85;;
47713;SDS011;33475;46.614;13.888;2023-08-24T00:36:04;17.30;;;7.13;;
47713;SDS011;33475;46.614;13.888;2023-08-24T00:38:31;8.18;;;6.53;;
47713;SDS011;33475;46.614;13.888;2023-08-24T00:40:57;8.50;;;7.13;;
47713;SDS011;33475;46.614;13.888;2023-08-24T00:43:27;9.00;;;6.22;;
47713;SDS011;33475;46.614;13.888;2023-08-24T00:45:55;8.75;;;7.13;;
47713;SDS011;33475;46.614;13.888;2023-08-24T00:48:22;10.57;;;7.07;;
47713;SDS011;33475;46.614;13.888;2023-08-24T00:50:51;9.20;;;6.20;;
47713;SDS011;33475;46.614;13.888;2023-08-24T00:53:18;7.65;;;6.03;;
47713;SDS011;33475;46.614;13.888;2023-08-24T00:55:45;7.10;;;6.32;;
47713;SDS011;33475;46.614;13.888;2023-08-24T00:58:11;7.85;;;6.65;;
47713;SDS011;33475;46.614;13.888;2023-08-24T01:00:37;7.55;;;6.85;;
47713;SDS011;33475;46.614;13.888;2023-08-24T01:03:04;7.75;;;7.03;;
47713;SDS011;33475;46.614;13.888;2023-08-24T01:05:30;7.88;;;7.25;;
47713;SDS011;33475;46.614;13.888;2023-08-24T01:07:56;7.40;;;6.70;;
47713;SDS011;33475;46.614;13.888;2023-08-24T01:10:23;7.53;;;6.75;;
47713;SDS011;33475;46.614;13.888;2023-08-24T01:12:52;6.97;;;6.35;;
47713;SDS011;33475;46.614;13.888;2023-08-24T01:15:25;9.23;;;6.20;;
47713;SDS011;33475;46.614;13.888;2023-08-24T01:17:53;6.70;;;5.78;;
47713;SDS011;33475;46.614;13.888;2023-08-24T01:20:21;6.75;;;6.15;;
47713;SDS011;33475;46.614;13.888;2023-08-24T01:25:34;7.00;;;6.40;;
47713;SDS011;33475;46.614;13.888;2023-08-24T01:28:06;6.88;;;6.10;;
47713;SDS011;33475;46.614;13.888;2023-08-24T01:30:34;7.40;;;6.72;;
47713;SDS011;33475;46.614;13.888;2023-08-24T01:33:03;10.98;;;6.65;;
47713;SDS011;33475;46.614;13.888;2023-08-24T01:35:30;9.63;;;6.38;;
47713;SDS011;33475;46.614;13.888;2023-08-24T01:37:57;7.50;;;6.20;;
47713;SDS011;33475;46.614;13.888;2023-08-24T01:40:39;8.30;;;7.00;;
47713;SDS011;33475;46.614;13.888;2023-08-24T01:43:07;7.18;;;6.57;;
47713;SDS011;33475;46.614;13.888;2023-08-24T01:45:33;7.25;;;6.65;;
47713;SDS011;33475;46.614;13.888;2023-08-24T01:48:00;7.88;;;7.10;;
47713;SDS011;33475;46.614;13.888;2023-08-24T01:50:30;7.75;;;6.60;;
47713;SDS011;33475;46.614;13.888;2023-08-24T01:52:57;8.27;;;7.47;;
47713;SDS011;33475;46.614;13.888;2023-08-24T01:55:23;8.38;;;6.72;;
47713;SDS011;33475;46.614;13.888;2023-08-24T01:57:49;12.77;;;7.47;;
47713;SDS011;33475;46.614;13.888;2023-08-24T02:00:15;9.48;;;7.10;;
47713;SDS011;33475;46.614;13.888;2023-08-24T02:02:42;11.98;;;7.03;;
47713;SDS011;33475;46.614;13.888;2023-08-24T02:05:08;8.57;;;7.18;;
47713;SDS011;33475;46.614;13.888;2023-08-24T02:07:34;8.00;;;7.07;;
47713;SDS011;33475;46.614;13.888;2023-08-24T02:10:01;9.43;;;6.38;;
47713;SDS011;33475;46.614;13.888;2023-08-24T02:12:27;11.07;;;7.10;;
47713;SDS011;33475;46.614;13.888;2023-08-24T02:14:53;6.53;;;5.88;;
47713;SDS011;33475;46.614;13.888;2023-08-24T02:17:19;6.45;;;5.85;;
47713;SDS011;33475;46.614;13.888;2023-08-24T02:19:45;16.73;;;6.85;;
47713;SDS011;33475;46.614;13.888;2023-08-24T02:22:11;7.18;;;6.47;;
47713;SDS011;33475;46.614;13.888;2023-08-24T02:24:38;7.22;;;6.50;;
47713;SDS011;33475;46.614;13.888;2023-08-24T02:27:04;6.85;;;6.25;;
47713;SDS011;33475;46.614;13.888;2023-08-24T02:29:30;6.75;;;6.05;;
47713;SDS011;33475;46.614;13.888;2023-08-24T02:31:56;7.43;;;6.70;;
47713;SDS011;33475;46.614;13.888;2023-08-24T02:34:23;9.35;;;7.00;;
47713;SDS011;33475;46.614;13.888;2023-08-24T02:36:49;8.90;;;7.50;;
47713;SDS011;33475;46.614;13.888;2023-08-24T02:39:15;7.35;;;6.65;;
47713;SDS011;33475;46.614;13.888;2023-08-24T02:41:41;8.60;;;6.70;;
47713;SDS011;33475;46.614;13.888;2023-08-24T02:44:07;8.93;;;6.90;;
47713;SDS011;33475;46.614;13.888;2023-08-24T02:46:33;9.70;;;7.20;;
47713;SDS011;33475;46.614;13.888;2023-08-24T02:48:59;8.65;;;7.05;;
47713;SDS011;33475;46.614;13.888;2023-08-24T02:51:25;9.65;;;8.55;;
47713;SDS011;33475;46.614;13.888;2023-08-24T02:53:52;12.50;;;8.43;;
47713;SDS011;33475;46.614;13.888;2023-08-24T02:56:18;7.15;;;6.45;;
47713;SDS011;33475;46.614;13.888;2023-08-24T02:58:44;6.50;;;6.00;;
47713;SDS011;33475;46.614;13.888;2023-08-24T03:01:10;6.72;;;5.72;;
47713;SDS011;33475;46.614;13.888;2023-08-24T03:03:36;6.15;;;5.65;;
47713;SDS011;33475;46.614;13.888;2023-08-24T03:06:04;6.70;;;6.10;;
47713;SDS011;33475;46.614;13.888;2023-08-24T03:08:31;7.18;;;6.47;;
47713;SDS011;33475;46.614;13.888;2023-08-24T03:10:58;7.53;;;6.05;;
47713;SDS011;33475;46.614;13.888;2023-08-24T03:13:25;8.52;;;6.28;;
47713;SDS011;33475;46.614;13.888;2023-08-24T03:15:51;8.15;;;6.88;;
47713;SDS011;33475;46.614;13.888;2023-08-24T03:18:17;10.18;;;6.60;;
47713;SDS011;33475;46.614;13.888;2023-08-24T03:20:44;7.63;;;6.93;;
47713;SDS011;33475;46.614;13.888;2023-08-24T03:23:11;7.65;;;6.68;;
47713;SDS011;33475;46.614;13.888;2023-08-24T03:25:38;13.18;;;9.07;;
47713;SDS011;33475;46.614;13.888;2023-08-24T03:28:05;12.55;;;9.82;;
47713;SDS011;33475;46.614;13.888;2023-08-24T03:30:35;15.40;;;8.40;;
47713;SDS011;33475;46.614;13.888;2023-08-24T03:33:01;7.88;;;7.18;;
47713;SDS011;33475;46.614;13.888;2023-08-24T03:35:31;9.35;;;7.38;;
47713;SDS011;33475;46.614;13.888;2023-08-24T03:37:58;13.43;;;8.27;;
47713;SDS011;33475;46.614;13.888;2023-08-24T03:40:24;8.00;;;7.30;;
47713;SDS011;33475;46.614;13.888;2023-08-24T03:42:50;6.22;;;5.72;;
47713;SDS011;33475;46.614;13.888;2023-08-24T03:45:18;7.60;;;6.80;;
47713;SDS011;33475;46.614;13.888;2023-08-24T03:47:44;8.10;;;7.30;;
47713;SDS011;33475;46.614;13.888;2023-08-24T03:50:10;7.85;;;7.05;;
47713;SDS011;33475;46.614;13.888;2023-08-24T03:52:36;7.70;;;7.00;;
47713;SDS011;33475;46.614;13.888;2023-08-24T03:55:04;8.98;;;7.40;;
47713;SDS011;33475;46.614;13.888;2023-08-24T03:57:31;8.43;;;7.60;;
47713;SDS011;33475;46.614;13.888;2023-08-24T03:59:57;9.45;;;7.90;;
47713;SDS011;33475;46.614;13.888;2023-08-24T04:02:24;7.75;;;6.95;;
47713;SDS011;33475;46.614;13.888;2023-08-24T04:04:50;8.23;;;7.43;;
47713;SDS011;33475;46.614;13.888;2023-08-24T04:07:16;7.72;;;7.03;;
47713;SDS011;33475;46.614;13.888;2023-08-24T04:09:43;6.63;;;6.03;;
47713;SDS011;33475;46.614;13.888;2023-08-24T04:12:10;5.95;;;5.43;;
47713;SDS011;33475;46.614;13.888;2023-08-24T04:14:37;6.30;;;5.63;;
47713;SDS011;33475;46.614;13.888;2023-08-24T04:17:03;6.55;;;5.95;;
47713;SDS011;33475;46.614;13.888;2023-08-24T04:19:29;6.70;;;6.13;;
47713;SDS011;33475;46.614;13.888;2023-08-24T04:21:56;8.90;;;5.97;;
47713;SDS011;33475;46.614;13.888;2023-08-24T04:24:22;7.53;;;6.60;;
47713;SDS011;33475;46.614;13.888;2023-08-24T04:26:50;8.90;;;6.85;;
47713;SDS011;33475;46.614;13.888;2023-08-24T04:29:16;9.20;;;6.68;;
47713;SDS011;33475;46.614;13.888;2023-08-24T04:31:43;9.23;;;7.65;;
47713;SDS011;33475;46.614;13.888;2023-08-24T04:34:09;7.88;;;7.18;;
47713;SDS011;33475;46.614;13.888;2023-08-24T04:36:36;10.70;;;8.48;;
47713;SDS011;33475;46.614;13.888;2023-08-24T04:39:02;10.38;;;9.35;;
47713;SDS011;33475;46.614;13.888;2023-08-24T04:41:29;9.95;;;7.90;;
47713;SDS011;33475;46.614;13.888;2023-08-24T04:43:55;9.85;;;8.32;;
47713;SDS011;33475;46.614;13.888;2023-08-24T04:46:21;11.98;;;9.13;;
47713;SDS011;33475;46.614;13.888;2023-08-24T04:48:48;16.63;;;7.65;;
47713;SDS011;33475;46.614;13.888;2023-08-24T04:51:14;10.90;;;7.35;;
47713;SDS011;33475;46.614;13.888;2023-08-24T04:53:41;10.88;;;9.55;;
47713;SDS011;33475;46.614;13.888;2023-08-24T04:56:07;11.75;;;9.30;;
47713;SDS011;33475;46.614;13.888;2023-08-24T04:58:33;11.23;;;8.98;;
47713;SDS011;33475;46.614;13.888;2023-08-24T05:00:59;11.27;;;9.77;;
47713;SDS011;33475;46.614;13.888;2023-08-24T05:03:26;12.50;;;7.25;;
47713;SDS011;33475;46.614;13.888;2023-08-24T05:05:52;8.75;;;6.25;;
47713;SDS011;33475;46.614;13.888;2023-08-24T05:08:18;8.82;;;6.05;;
47713;SDS011;33475;46.614;13.888;2023-08-24T05:10:44;12.05;;;7.53;;
47713;SDS011;33475;46.614;13.888;2023-08-24T05:13:10;7.30;;;6.63;;
47713;SDS011;33475;46.614;13.888;2023-08-24T05:15:37;6.50;;;5.90;;
47713;SDS011;33475;46.614;13.888;2023-08-24T05:18:03;9.35;;;6.53;;
47713;SDS011;33475;46.614;13.888;2023-08-24T05:20:29;11.57;;;6.70;;
47713;SDS011;33475;46.614;13.888;2023-08-24T05:22:55;16.00;;;6.75;;
47713;SDS011;33475;46.614;13.888;2023-08-24T05:25:22;21.98;;;9.25;;
47713;SDS011;33475;46.614;13.888;2023-08-24T05:27:48;12.82;;;6.85;;
47713;SDS011;33475;46.614;13.888;2023-08-24T05:30:14;13.45;;;6.78;;
47713;SDS011;33475;46.614;13.888;2023-08-24T05:32:40;16.38;;;8.25;;
47713;SDS011;33475;46.614;13.888;2023-08-24T05:35:06;7.72;;;6.60;;
47713;SDS011;33475;46.614;13.888;2023-08-24T05:37:33;7.97;;;7.15;;
47713;SDS011;33475;46.614;13.888;2023-08-24T05:39:59;9.20;;;7.00;;
47713;SDS011;33475;46.614;13.888;2023-08-24T05:42:26;8.25;;;6.53;;
47713;SDS011;33475;46.614;13.888;2023-08-24T05:44:52;11.20;;;7.57;;
47713;SDS011;33475;46.614;13.888;2023-08-24T05:47:19;9.93;;;8.23;;
47713;SDS011;33475;46.614;13.888;2023-08-24T05:49:45;10.50;;;8.07;;
47713;SDS011;33475;46.614;13.888;2023-08-24T05:52:11;9.25;;;8.38;;
47713;SDS011;33475;46.614;13.888;2023-08-24T05:54:37;8.20;;;7.55;;
47713;SDS011;33475;46.614;13.888;2023-08-24T05:57:04;12.43;;;8.77;;
47713;SDS011;33475;46.614;13.888;2023-08-24T05:59:31;8.93;;;8.05;;
47713;SDS011;33475;46.614;13.888;2023-08-24T06:01:57;11.85;;;8.25;;
47713;SDS011;33475;46.614;13.888;2023-08-24T06:04:23;13.00;;;7.68;;
47713;SDS011;33475;46.614;13.888;2023-08-24T06:06:49;10.77;;;7.38;;
47713;SDS011;33475;46.614;13.888;2023-08-24T06:09:16;8.80;;;7.18;;
47713;SDS011;33475;46.614;13.888;2023-08-24T06:11:42;13.90;;;7.00;;
47713;SDS011;33475;46.614;13.888;2023-08-24T06:14:09;8.98;;;5.78;;
47713;SDS011;33475;46.614;13.888;2023-08-24T06:16:35;6.60;;;5.00;;
47713;SDS011;33475;46.614;13.888;2023-08-24T06:19:01;9.05;;;6.05;;
47713;SDS011;33475;46.614;13.888;2023-08-24T06:21:28;5.38;;;4.90;;
47713;SDS011;33475;46.614;13.888;2023-08-24T06:23:55;8.75;;;5.35;;
47713;SDS011;33475;46.614;13.888;2023-08-24T06:26:21;5.50;;;4.97;;
47713;SDS011;33475;46.614;13.888;2023-08-24T06:28:47;8.50;;;5.40;;
47713;SDS011;33475;46.614;13.888;2023-08-24T06:31:13;7.10;;;5.47;;
47713;SDS011;33475;46.614;13.888;2023-08-24T06:33:41;6.65;;;5.15;;
47713;SDS011;33475;46.614;13.888;2023-08-24T06:36:07;6.82;;;5.15;;
47713;SDS011;33475;46.614;13.888;2023-08-24T06:38:34;8.60;;;5.25;;
47713;SDS011;33475;46.614;13.888;2023-08-24T06:41:00;8.07;;;5.57;;
47713;SDS011;33475;46.614;13.888;2023-08-24T06:43:27;8.10;;;4.95;;
47713;SDS011;33475;46.614;13.888;2023-08-24T06:45:56;6.03;;;5.45;;
47713;SDS011;33475;46.614;13.888;2023-08-24T06:48:23;6.30;;;5.03;;
47713;SDS011;33475;46.614;13.888;2023-08-24T06:50:49;9.07;;;5.88;;
47713;SDS011;33475;46.614;13.888;2023-08-24T06:53:15;6.22;;;5.10;;
47713;SDS011;33475;46.614;13.888;2023-08-24T06:55:41;5.75;;;4.85;;
47713;SDS011;33475;46.614;13.888;2023-08-24T06:58:07;10.48;;;5.00;;
47713;SDS011;33475;46.614;13.888;2023-08-24T07:00:34;9.10;;;6.00;;
47713;SDS011;33475;46.614;13.888;2023-08-24T07:03:00;9.55;;;4.78;;
47713;SDS011;33475;46.614;13.888;2023-08-24T07:05:27;7.53;;;4.53;;
47713;SDS011;33475;46.614;13.888;2023-08-24T07:07:54;6.65;;;4.18;;
47713;SDS011;33475;46.614;13.888;2023-08-24T07:10:20;5.85;;;4.50;;
47713;SDS011;33475;46.614;13.888;2023-08-24T07:12:46;7.95;;;4.63;;
47713;SDS011;33475;46.614;13.888;2023-08-24T07:15:12;9.07;;;4.70;;
47713;SDS011;33475;46.614;13.888;2023-08-24T07:17:38;6.03;;;4.22;;
47713;SDS011;33475;46.614;13.888;2023-08-24T07:20:05;9.85;;;4.60;;
47713;SDS011;33475;46.614;13.888;2023-08-24T07:22:33;5.60;;;4.35;;
47713;SDS011;33475;46.614;13.888;2023-08-24T07:25:00;7.15;;;5.05;;
47713;SDS011;33475;46.614;13.888;2023-08-24T07:27:30;6.10;;;4.88;;
47713;SDS011;33475;46.614;13.888;2023-08-24T07:29:56;7.60;;;5.10;;
47713;SDS011;33475;46.614;13.888;2023-08-24T07:32:22;5.80;;;4.63;;
47713;SDS011;33475;46.614;13.888;2023-08-24T07:34:49;10.30;;;4.75;;
47713;SDS011;33475;46.614;13.888;2023-08-24T07:37:15;6.13;;;5.18;;
47713;SDS011;33475;46.614;13.888;2023-08-24T07:39:41;15.65;;;5.22;;
47713;SDS011;33475;46.614;13.888;2023-08-24T07:42:07;7.95;;;4.72;;
47713;SDS011;33475;46.614;13.888;2023-08-24T07:44:33;5.35;;;4.65;;
47713;SDS011;33475;46.614;13.888;2023-08-24T07:47:01;5.15;;;4.60;;
47713;SDS011;33475;46.614;13.888;2023-08-24T07:49:27;9.10;;;4.35;;
47713;SDS011;33475;46.614;13.888;2023-08-24T07:51:54;5.63;;;4.20;;
47713;SDS011;33475;46.614;13.888;2023-08-24T07:54:22;9.90;;;4.50;;
47713;SDS011;33475;46.614;13.888;2023-08-24T07:56:48;8.85;;;5.13;;
47713;SDS011;33475;46.614;13.888;2023-08-24T07:59:14;7.55;;;4.57;;
47713;SDS011;33475;46.614;13.888;2023-08-24T08:01:40;7.10;;;4.35;;
47713;SDS011;33475;46.614;13.888;2023-08-24T08:04:06;8.20;;;4.00;;
47713;SDS011;33475;46.614;13.888;2023-08-24T08:06:33;4.35;;;3.97;;
47713;SDS011;33475;46.614;13.888;2023-08-24T08:08:59;5.55;;;4.30;;
47713;SDS011;33475;46.614;13.888;2023-08-24T08:11:25;6.25;;;5.63;;
47713;SDS011;33475;46.614;13.888;2023-08-24T08:13:52;9.10;;;4.47;;
47713;SDS011;33475;46.614;13.888;2023-08-24T08:16:18;4.47;;;4.07;;
47713;SDS011;33475;46.614;13.888;2023-08-24T08:18:44;7.60;;;4.60;;
47713;SDS011;33475;46.614;13.888;2023-08-24T08:21:14;4.22;;;3.80;;
47713;SDS011;33475;46.614;13.888;2023-08-24T08:23:44;7.43;;;4.68;;
47713;SDS011;33475;46.614;13.888;2023-08-24T08:26:10;7.95;;;4.28;;
47713;SDS011;33475;46.614;13.888;2023-08-24T08:28:37;11.02;;;3.72;;
47713;SDS011;33475;46.614;13.888;2023-08-24T08:31:03;6.32;;;3.88;;
47713;SDS011;33475;46.614;13.888;2023-08-24T08:33:29;4.88;;;3.70;;
47713;SDS011;33475;46.614;13.888;2023-08-24T08:35:56;6.07;;;3.90;;
47713;SDS011;33475;46.614;13.888;2023-08-24T08:38:22;5.75;;;4.60;;
47713;SDS011;33475;46.614;13.888;2023-08-24T08:40:51;11.48;;;4.65;;
47713;SDS011;33475;46.614;13.888;2023-08-24T08:43:21;8.18;;;5.40;;
47713;SDS011;33475;46.614;13.888;2023-08-24T08:45:49;4.43;;;4.03;;
47713;SDS011;33475;46.614;13.888;2023-08-24T08:48:15;14.55;;;4.65;;
47713;SDS011;33475;46.614;13.888;2023-08-24T08:50:41;6.53;;;4.50;;
47713;SDS011;33475;46.614;13.888;2023-08-24T08:53:08;7.30;;;4.47;;
47713;SDS011;33475;46.614;13.888;2023-08-24T08:55:34;6.45;;;3.97;;
47713;SDS011;33475;46.614;13.888;2023-08-24T08:58:00;5.20;;;4.10;;
47713;SDS011;33475;46.614;13.888;2023-08-24T09:00:29;6.30;;;4.15;;
47713;SDS011;33475;46.614;13.888;2023-08-24T09:02:56;5.18;;;4.45;;
47713;SDS011;33475;46.614;13.888;2023-08-24T09:05:23;9.50;;;4.35;;
47713;SDS011;33475;46.614;13.888;2023-08-24T09:07:51;4.70;;;4.25;;
47713;SDS011;33475;46.614;13.888;2023-08-24T09:10:19;5.25;;;4.68;;
47713;SDS011;33475;46.614;13.888;2023-08-24T09:12:45;5.10;;;4.60;;
47713;SDS011;33475;46.614;13.888;2023-08-24T09:15:11;6.90;;;4.10;;
47713;SDS011;33475;46.614;13.888;2023-08-24T09:17:42;9.05;;;5.38;;
47713;SDS011;33475;46.614;13.888;2023-08-24T09:20:09;5.63;;;3.97;;
47713;SDS011;33475;46.614;13.888;2023-08-24T09:22:36;5.45;;;3.45;;
47713;SDS011;33475;46.614;13.888;2023-08-24T09:25:05;8.43;;;4.72;;
47713;SDS011;33475;46.614;13.888;2023-08-24T09:27:33;11.60;;;3.80;;
47713;SDS011;33475;46.614;13.888;2023-08-24T09:30:00;6.85;;;4.18;;
47713;SDS011;33475;46.614;13.888;2023-08-24T09:32:27;6.00;;;4.38;;
47713;SDS011;33475;46.614;13.888;2023-08-24T09:34:54;4.30;;;3.85;;
47713;SDS011;33475;46.614;13.888;2023-08-24T09:37:20;7.60;;;4.72;;
47713;SDS011;33475;46.614;13.888;2023-08-24T09:39:47;4.95;;;4.55;;
47713;SDS011;33475;46.614;13.888;2023-08-24T09:42:13;7.63;;;4.97;;
47713;SDS011;33475;46.614;13.888;2023-08-24T09:44:46;5.30;;;4.45;;
47713;SDS011;33475;46.614;13.888;2023-08-24T09:47:12;5.37;;;4.20;;
47713;SDS011;33475;46.614;13.888;2023-08-24T09:49:38;7.43;;;4.20;;
47713;SDS011;33475;46.614;13.888;2023-08-24T09:52:08;6.95;;;3.65;;
47713;SDS011;33475;46.614;13.888;2023-08-24T09:54:37;6.85;;;3.80;;
47713;SDS011;33475;46.614;13.888;2023-08-24T09:57:04;6.55;;;4.30;;
47713;SDS011;33475;46.614;13.888;2023-08-24T09:59:34;6.65;;;3.45;;
47713;SDS011;33475;46.614;13.888;2023-08-24T10:02:01;8.55;;;3.80;;
47713;SDS011;33475;46.614;13.888;2023-08-24T10:04:28;5.22;;;4.03;;
47713;SDS011;33475;46.614;13.888;2023-08-24T10:06:55;4.85;;;4.20;;
47713;SDS011;33475;46.614;13.888;2023-08-24T10:09:23;7.18;;;3.90;;
47713;SDS011;33475;46.614;13.888;2023-08-24T10:11:52;7.50;;;3.70;;
47713;SDS011;33475;46.614;13.888;2023-08-24T10:14:39;7.80;;;3.88;;
47713;SDS011;33475;46.614;13.888;2023-08-24T10:17:09;6.85;;;3.75;;
47713;SDS011;33475;46.614;13.888;2023-08-24T10:19:35;7.72;;;3.67;;
47713;SDS011;33475;46.614;13.888;2023-08-24T10:22:02;5.10;;;3.45;;
47713;SDS011;33475;46.614;13.888;2023-08-24T10:24:29;5.70;;;3.95;;
47713;SDS011;33475;46.614;13.888;2023-08-24T10:26:55;4.03;;;3.53;;
47713;SDS011;33475;46.614;13.888;2023-08-24T10:29:23;8.52;;;3.53;;
47713;SDS011;33475;46.614;13.888;2023-08-24T10:31:49;5.00;;;3.55;;
47713;SDS011;33475;46.614;13.888;2023-08-24T10:34:15;3.38;;;3.08;;
47713;SDS011;33475;46.614;13.888;2023-08-24T10:36:42;6.15;;;3.58;;
47713;SDS011;33475;46.614;13.888;2023-08-24T10:39:08;6.28;;;3.75;;
47713;SDS011;33475;46.614;13.888;2023-08-24T10:41:48;4.32;;;3.63;;
47713;SDS011;33475;46.614;13.888;2023-08-24T10:44:21;4.75;;;3.55;;
47713;SDS011;33475;46.614;13.888;2023-08-24T10:47:07;4.97;;;3.42;;
47713;SDS011;33475;46.614;13.888;2023-08-24T10:49:33;5.60;;;3.58;;
47713;SDS011;33475;46.614;13.888;2023-08-24T10:52:19;4.38;;;3.53;;
47713;SDS011;33475;46.614;13.888;2023-08-24T10:54:47;6.95;;;3.25;;
47713;SDS011;33475;46.614;13.888;2023-08-24T10:59:45;6.30;;;3.58;;
47713;SDS011;33475;46.614;13.888;2023-08-24T11:02:17;5.80;;;3.30;;
47713;SDS011;33475;46.614;13.888;2023-08-24T11:07:10;3.95;;;3.10;;
47713;SDS011;33475;46.614;13.888;2023-08-24T11:09:45;4.32;;;3.17;;
47713;SDS011;33475;46.614;13.888;2023-08-24T11:12:14;5.10;;;3.28;;
47713;SDS011;33475;46.614;13.888;2023-08-24T11:14:49;4.07;;;3.13;;
47713;SDS011;33475;46.614;13.888;2023-08-24T11:17:17;4.88;;;3.15;;
47713;SDS011;33475;46.614;13.888;2023-08-24T11:19:50;4.47;;;2.90;;
47713;SDS011;33475;46.614;13.888;2023-08-24T11:22:17;5.10;;;3.20;;
47713;SDS011;33475;46.614;13.888;2023-08-24T11:24:44;4.40;;;3.03;;
47713;SDS011;33475;46.614;13.888;2023-08-24T11:27:10;3.35;;;2.95;;
47713;SDS011;33475;46.614;13.888;2023-08-24T11:29:36;7.35;;;2.50;;
47713;SDS011;33475;46.614;13.888;2023-08-24T11:32:02;2.80;;;2.60;;
47713;SDS011;33475;46.614;13.888;2023-08-24T11:34:32;3.95;;;2.78;;
47713;SDS011;33475;46.614;13.888;2023-08-24T11:37:01;4.35;;;2.88;;
47713;SDS011;33475;46.614;13.888;2023-08-24T11:39:27;2.60;;;2.40;;
47713;SDS011;33475;46.614;13.888;2023-08-24T11:42:02;3.38;;;2.58;;
47713;SDS011;33475;46.614;13.888;2023-08-24T11:44:28;3.55;;;2.85;;
47713;SDS011;33475;46.614;13.888;2023-08-24T11:46:56;4.68;;;2.70;;
47713;SDS011;33475;46.614;13.888;2023-08-24T11:49:23;2.85;;;2.63;;
47713;SDS011;33475;46.614;13.888;2023-08-24T11:51:50;8.00;;;2.70;;
47713;SDS011;33475;46.614;13.888;2023-08-24T11:54:16;3.65;;;2.92;;
47713;SDS011;33475;46.614;13.888;2023-08-24T11:56:43;5.05;;;2.80;;
47713;SDS011;33475;46.614;13.888;2023-08-24T11:59:14;4.90;;;2.88;;
47713;SDS011;33475;46.614;13.888;2023-08-24T12:01:40;3.63;;;3.00;;
47713;SDS011;33475;46.614;13.888;2023-08-24T12:04:07;3.15;;;2.65;;
47713;SDS011;33475;46.614;13.888;2023-08-24T12:06:34;2.97;;;2.70;;
47713;SDS011;33475;46.614;13.888;2023-08-24T12:09:01;6.32;;;3.05;;
47713;SDS011;33475;46.614;13.888;2023-08-24T12:11:30;4.18;;;2.38;;
47713;SDS011;33475;46.614;13.888;2023-08-24T12:14:00;5.50;;;2.40;;
47713;SDS011;33475;46.614;13.888;2023-08-24T12:16:26;6.85;;;2.88;;
47713;SDS011;33475;46.614;13.888;2023-08-24T12:18:58;4.32;;;2.72;;
47713;SDS011;33475;46.614;13.888;2023-08-24T12:21:25;4.70;;;2.47;;
47713;SDS011;33475;46.614;13.888;2023-08-24T12:23:59;3.00;;;2.50;;
47713;SDS011;33475;46.614;13.888;2023-08-24T12:26:29;6.10;;;2.67;;
47713;SDS011;33475;46.614;13.888;2023-08-24T12:28:55;2.85;;;2.65;;
47713;SDS011;33475;46.614;13.888;2023-08-24T12:31:26;5.22;;;2.72;;
47713;SDS011;33475;46.614;13.888;2023-08-24T12:33:59;3.65;;;3.13;;
47713;SDS011;33475;46.614;13.888;2023-08-24T12:36:25;6.10;;;2.70;;
47713;SDS011;33475;46.614;13.888;2023-08-24T12:38:51;4.03;;;2.80;;
47713;SDS011;33475;46.614;13.888;2023-08-24T12:41:18;4.40;;;2.90;;
47713;SDS011;33475;46.614;13.888;2023-08-24T12:43:44;4.03;;;2.58;;
47713;SDS011;33475;46.614;13.888;2023-08-24T12:46:10;3.20;;;2.30;;
47713;SDS011;33475;46.614;13.888;2023-08-24T12:48:36;6.45;;;2.67;;
47713;SDS011;33475;46.614;13.888;2023-08-24T12:51:02;3.05;;;2.60;;
47713;SDS011;33475;46.614;13.888;2023-08-24T12:53:28;6.10;;;2.80;;
47713;SDS011;33475;46.614;13.888;2023-08-24T12:55:54;4.50;;;2.85;;
47713;SDS011;33475;46.614;13.888;2023-08-24T12:58:21;4.82;;;2.50;;
47713;SDS011;33475;46.614;13.888;2023-08-24T13:00:47;3.85;;;2.60;;
47713;SDS011;33475;46.614;13.888;2023-08-24T13:03:14;6.50;;;2.70;;
47713;SDS011;33475;46.614;13.888;2023-08-24T13:05:40;3.78;;;2.58;;
47713;SDS011;33475;46.614;13.888;2023-08-24T13:08:06;3.65;;;2.60;;
47713;SDS011;33475;46.614;13.888;2023-08-24T13:10:32;5.13;;;3.03;;
47713;SDS011;33475;46.614;13.888;2023-08-24T13:12:58;3.30;;;3.00;;
47713;SDS011;33475;46.614;13.888;2023-08-24T13:15:25;4.80;;;2.65;;
47713;SDS011;33475;46.614;13.888;2023-08-24T13:17:51;7.55;;;2.60;;
47713;SDS011;33475;46.614;13.888;2023-08-24T13:20:17;5.75;;;2.78;;
47713;SDS011;33475;46.614;13.888;2023-08-24T13:22:43;2.90;;;2.70;;
47713;SDS011;33475;46.614;13.888;2023-08-24T13:25:09;3.70;;;3.00;;
47713;SDS011;33475;46.614;13.888;2023-08-24T13:27:35;3.40;;;2.85;;
47713;SDS011;33475;46.614;13.888;2023-08-24T13:30:02;6.75;;;3.00;;
47713;SDS011;33475;46.614;13.888;2023-08-24T13:32:29;5.80;;;2.72;;
47713;SDS011;33475;46.614;13.888;2023-08-24T13:34:55;3.08;;;2.70;;
47713;SDS011;33475;46.614;13.888;2023-08-24T13:37:22;5.63;;;2.92;;
47713;SDS011;33475;46.614;13.888;2023-08-24T13:39:51;5.80;;;3.08;;
47713;SDS011;33475;46.614;13.888;2023-08-24T13:42:17;3.22;;;2.92;;
47713;SDS011;33475;46.614;13.888;2023-08-24T13:44:44;5.72;;;2.65;;
47713;SDS011;33475;46.614;13.888;2023-08-24T13:47:11;4.07;;;2.90;;
47713;SDS011;33475;46.614;13.888;2023-08-24T13:49:37;6.65;;;3.08;;
47713;SDS011;33475;46.614;13.888;2023-08-24T13:52:03;6.68;;;3.10;;
47713;SDS011;33475;46.614;13.888;2023-08-24T13:54:30;5.68;;;3.40;;
47713;SDS011;33475;46.614;13.888;2023-08-24T13:56:56;4.97;;;2.72;;
47713;SDS011;33475;46.614;13.888;2023-08-24T13:59:23;5.25;;;3.55;;
47713;SDS011;33475;46.614;13.888;2023-08-24T14:01:50;4.50;;;2.80;;
47713;SDS011;33475;46.614;13.888;2023-08-24T14:04:16;5.07;;;2.97;;
47713;SDS011;33475;46.614;13.888;2023-08-24T14:06:42;4.47;;;2.67;;
47713;SDS011;33475;46.614;13.888;2023-08-24T14:09:08;5.25;;;3.00;;
47713;SDS011;33475;46.614;13.888;2023-08-24T14:11:34;3.55;;;2.97;;
47713;SDS011;33475;46.614;13.888;2023-08-24T14:14:00;12.07;;;3.55;;
47713;SDS011;33475;46.614;13.888;2023-08-24T14:16:26;3.38;;;3.05;;
47713;SDS011;33475;46.614;13.888;2023-08-24T14:18:53;6.93;;;2.97;;
47713;SDS011;33475;46.614;13.888;2023-08-24T14:21:19;3.80;;;3.03;;
47713;SDS011;33475;46.614;13.888;2023-08-24T14:23:45;5.25;;;2.80;;
47713;SDS011;33475;46.614;13.888;2023-08-24T14:26:11;7.45;;;2.90;;
47713;SDS011;33475;46.614;13.888;2023-08-24T14:28:48;4.75;;;3.30;;
47713;SDS011;33475;46.614;13.888;2023-08-24T14:31:15;3.97;;;3.03;;
47713;SDS011;33475;46.614;13.888;2023-08-24T14:33:41;5.03;;;3.05;;
47713;SDS011;33475;46.614;13.888;2023-08-24T14:36:07;5.88;;;2.80;;
47713;SDS011;33475;46.614;13.888;2023-08-24T14:38:34;5.68;;;3.22;;
47713;SDS011;33475;46.614;13.888;2023-08-24T14:41:00;4.45;;;3.30;;